Time;durP1;ratioP1;P1;durP2;ratioP2;P2;SDS_P1;SDS_P2;PMS_P1;PMS_P2;Temp;Humidity;BMP_temperature;BMP_pressure;BME280_temperature;BME280_humidity;BME280_pressure;Samples;Min_cycle;Max_cycle;Signal;HPM_P1;HPM_P2
2021/11/11 00:00:38;;;;;;;25.95;14.27;;;9.80;99.90;;;;;;5032076;28;20025;-76
2021/11/11 00:03:04;;;;;;;36.85;16.08;;;9.80;99.90;;;;;;5031441;28;20030;-76
2021/11/11 00:05:31;;;;;;;21.38;13.23;;;9.80;99.90;;;;;;5031758;28;20025;-77
2021/11/11 00:07:57;;;;;;;31.80;16.50;;;9.80;99.90;;;;;;5014211;28;20065;-77
2021/11/11 00:10:23;;;;;;;30.52;16.70;;;9.80;99.90;;;;;;5030765;28;20079;-74
2021/11/11 00:12:51;;;;;;;25.65;14.30;;;9.80;99.90;;;;;;5032020;28;20367;-74
2021/11/11 00:15:17;;;;;;;29.77;14.65;;;9.80;99.90;;;;;;5031049;28;20523;-74
2021/11/11 00:17:44;;;;;;;27.63;14.48;;;9.80;99.90;;;;;;5031382;28;20032;-74
2021/11/11 00:20:11;;;;;;;35.35;16.85;;;9.80;99.90;;;;;;5031558;28;20053;-75
2021/11/11 00:22:38;;;;;;;36.42;16.77;;;9.80;99.90;;;;;;5030980;28;20091;-75
2021/11/11 00:25:05;;;;;;;28.50;16.88;;;9.80;99.90;;;;;;5031559;28;20022;-76
2021/11/11 00:27:31;;;;;;;29.20;15.45;;;9.80;99.90;;;;;;5031113;28;20334;-76
2021/11/11 00:29:57;;;;;;;34.47;15.13;;;9.80;99.90;;;;;;5030953;28;20032;-75
2021/11/11 00:32:22;;;;;;;28.40;14.32;;;9.80;99.90;;;;;;5031359;28;20022;-76
2021/11/11 00:34:52;;;;;;;31.30;15.70;;;9.80;99.90;;;;;;5031797;28;20120;-75
2021/11/11 00:37:18;;;;;;;30.85;15.88;;;9.80;99.90;;;;;;5030989;28;20053;-76
2021/11/11 00:39:44;;;;;;;26.60;15.20;;;9.80;99.90;;;;;;5031011;28;20046;-76
2021/11/11 00:42:10;;;;;;;26.05;15.15;;;9.80;99.90;;;;;;5031012;28;20079;-75
2021/11/11 00:44:36;;;;;;;23.10;14.00;;;9.80;99.90;;;;;;5030393;28;20014;-75
2021/11/11 00:47:02;;;;;;;21.48;13.88;;;9.80;99.90;;;;;;5032095;28;20400;-76
2021/11/11 00:49:28;;;;;;;29.02;14.82;;;9.80;99.90;;;;;;5034451;28;20017;-75
2021/11/11 00:51:53;;;;;;;26.90;15.23;;;9.80;99.90;;;;;;5034922;28;20389;-75
2021/11/11 00:54:19;;;;;;;27.10;14.45;;;9.80;99.90;;;;;;5035361;28;20404;-74
2021/11/11 00:56:44;;;;;;;25.55;14.27;;;9.80;99.90;;;;;;5035015;28;20362;-75
2021/11/11 00:59:11;;;;;;;31.02;15.00;;;9.80;99.90;;;;;;5034757;28;20481;-76
2021/11/11 01:01:36;;;;;;;24.13;14.23;;;9.80;99.90;;;;;;5034713;28;20087;-75
2021/11/11 01:04:03;;;;;;;31.77;14.60;;;9.80;99.90;;;;;;5033480;28;20487;-75
2021/11/11 01:06:29;;;;;;;25.90;14.73;;;9.80;99.90;;;;;;5034104;28;20404;-77
2021/11/11 01:08:56;;;;;;;26.52;14.70;;;9.80;99.90;;;;;;5017031;28;20017;-75
2021/11/11 01:11:23;;;;;;;32.75;15.00;;;9.80;99.90;;;;;;5034490;28;20025;-75
2021/11/11 01:13:49;;;;;;;24.40;15.00;;;9.70;99.90;;;;;;5034177;28;20370;-75
2021/11/11 01:16:14;;;;;;;25.23;14.13;;;9.80;99.90;;;;;;5034661;28;20033;-74
2021/11/11 01:18:41;;;;;;;29.90;13.95;;;9.80;99.90;;;;;;5033802;28;20484;-76
2021/11/11 01:21:07;;;;;;;33.30;15.02;;;9.80;99.90;;;;;;5034727;28;20110;-76
2021/11/11 01:23:33;;;;;;;29.88;16.50;;;9.80;99.90;;;;;;5033440;28;20446;-75
2021/11/11 01:25:59;;;;;;;32.97;15.85;;;9.80;99.90;;;;;;5033612;28;20104;-75
2021/11/11 01:28:25;;;;;;;31.25;16.52;;;9.80;99.90;;;;;;5034418;28;20029;-75
2021/11/11 01:30:51;;;;;;;27.60;15.43;;;9.80;99.90;;;;;;5034406;28;20269;-75
2021/11/11 01:33:17;;;;;;;25.17;14.93;;;9.80;99.90;;;;;;5035373;28;20029;-77
2021/11/11 01:35:43;;;;;;;28.67;14.52;;;9.80;99.90;;;;;;5033832;28;20466;-76
2021/11/11 01:38:12;;;;;;;28.33;14.25;;;9.80;99.90;;;;;;5034516;28;20451;-77
2021/11/11 01:40:38;;;;;;;31.95;15.30;;;9.80;99.90;;;;;;5033298;28;20478;-74
2021/11/11 01:43:06;;;;;;;37.38;16.10;;;9.80;99.90;;;;;;5029188;28;20033;-73
2021/11/11 01:45:38;;;;;;;26.00;14.27;;;9.80;99.90;;;;;;5026895;28;20021;-74
2021/11/11 01:48:05;;;;;;;34.47;17.00;;;9.80;99.90;;;;;;5033429;28;20481;-76
2021/11/11 01:50:31;;;;;;;42.58;16.27;;;9.80;99.90;;;;;;5034230;28;20034;-74
2021/11/11 01:52:58;;;;;;;38.38;18.30;;;9.80;99.90;;;;;;5034102;28;20033;-77
2021/11/11 01:55:24;;;;;;;28.92;15.27;;;9.80;99.90;;;;;;5033467;28;20025;-76
2021/11/11 01:57:51;;;;;;;35.10;16.27;;;9.80;99.90;;;;;;5033696;28;20351;-76
2021/11/11 02:00:29;;;;;;;34.83;16.83;;;9.80;99.90;;;;;;5033725;28;20381;-77
2021/11/11 02:03:03;;;;;;;37.58;15.10;;;9.80;99.90;;;;;;5033228;28;20049;-76
2021/11/11 02:05:29;;;;;;;31.27;16.17;;;9.70;99.90;;;;;;5033933;28;20095;-76
2021/11/11 02:07:55;;;;;;;36.25;15.80;;;9.80;99.90;;;;;;5033400;28;20033;-75
2021/11/11 02:10:23;;;;;;;29.40;16.05;;;9.80;99.90;;;;;;5033988;28;20017;-74
2021/11/11 02:12:49;;;;;;;35.25;16.75;;;9.80;99.90;;;;;;5033850;28;20091;-77
2021/11/11 02:15:16;;;;;;;31.95;16.27;;;9.80;99.90;;;;;;5033556;28;20052;-74
2021/11/11 02:17:41;;;;;;;29.05;16.33;;;9.80;99.90;;;;;;5033949;28;20028;-76
2021/11/11 02:20:11;;;;;;;29.98;15.52;;;9.80;99.90;;;;;;5033347;28;20017;-76
2021/11/11 02:22:37;;;;;;;25.90;14.70;;;9.80;99.90;;;;;;5032894;28;20087;-75
2021/11/11 02:25:14;;;;;;;29.23;15.65;;;9.80;99.90;;;;;;5033571;28;20584;-75
2021/11/11 02:27:41;;;;;;;34.00;16.58;;;9.80;99.90;;;;;;5020475;28;20033;-76
2021/11/11 02:30:10;;;;;;;26.42;15.13;;;9.80;99.90;;;;;;5033071;28;20620;-75
2021/11/11 02:32:36;;;;;;;27.77;15.65;;;9.80;99.90;;;;;;5033536;28;20064;-76
2021/11/11 02:35:03;;;;;;;30.10;16.27;;;9.80;99.90;;;;;;5033098;28;20033;-74
2021/11/11 02:37:31;;;;;;;33.63;15.82;;;9.70;99.90;;;;;;5032027;28;20035;-75
2021/11/11 02:39:59;;;;;;;33.42;15.00;;;9.80;99.90;;;;;;5033607;28;20474;-75
2021/11/11 02:42:26;;;;;;;37.88;15.40;;;9.70;99.90;;;;;;5030104;28;20038;-76
2021/11/11 02:44:56;;;;;;;32.85;17.35;;;9.80;99.90;;;;;;5021565;28;20033;-76
2021/11/11 02:47:21;;;;;;;29.05;16.30;;;9.70;99.90;;;;;;5032896;28;20049;-75
2021/11/11 02:49:47;;;;;;;36.83;15.95;;;9.70;99.90;;;;;;5032801;28;20022;-76
2021/11/11 02:52:13;;;;;;;34.20;16.23;;;9.80;99.90;;;;;;5032581;28;20509;-75
2021/11/11 02:54:40;;;;;;;29.08;16.38;;;9.70;99.90;;;;;;5032321;28;20029;-76
2021/11/11 02:57:25;;;;;;;31.00;16.65;;;9.70;99.90;;;;;;5032303;28;20041;-76
2021/11/11 02:59:56;;;;;;;28.15;15.52;;;9.70;99.90;;;;;;5019057;28;20048;-76
2021/11/11 03:02:27;;;;;;;26.98;16.05;;;9.70;99.90;;;;;;5032421;28;20477;-76
2021/11/11 03:04:53;;;;;;;38.97;16.83;;;9.80;99.90;;;;;;5031954;28;20040;-75
2021/11/11 03:07:19;;;;;;;31.52;15.82;;;9.70;99.90;;;;;;5032813;28;20044;-74
2021/11/11 03:09:46;;;;;;;30.55;16.35;;;9.70;99.90;;;;;;5031556;28;20021;-75
2021/11/11 03:12:12;;;;;;;29.52;15.52;;;9.70;99.90;;;;;;5032045;28;20116;-74
2021/11/11 03:14:38;;;;;;;32.17;16.48;;;9.70;99.90;;;;;;5032237;28;20188;-77
2021/11/11 03:17:05;;;;;;;32.35;17.05;;;9.70;99.90;;;;;;5032172;28;20075;-75
2021/11/11 03:19:34;;;;;;;33.20;16.83;;;9.70;99.90;;;;;;5031409;28;20535;-75
2021/11/11 03:22:03;;;;;;;24.75;15.13;;;9.70;99.90;;;;;;5032077;28;20029;-76
2021/11/11 03:24:29;;;;;;;22.77;14.88;;;9.60;99.90;;;;;;5031587;28;20397;-76
2021/11/11 03:26:54;;;;;;;35.85;15.13;;;9.60;99.90;;;;;;5032205;28;20033;-75
2021/11/11 03:29:20;;;;;;;32.13;17.02;;;9.60;99.90;;;;;;5032047;28;20021;-76
2021/11/11 03:31:45;;;;;;;33.20;17.20;;;9.70;99.90;;;;;;5032254;28;20386;-76
2021/11/11 03:34:11;;;;;;;33.38;16.75;;;9.60;99.90;;;;;;5031679;28;20033;-76
2021/11/11 03:36:39;;;;;;;30.83;17.30;;;9.60;99.90;;;;;;5031884;28;20076;-76
2021/11/11 03:39:05;;;;;;;33.50;17.05;;;9.60;99.90;;;;;;5030327;28;20092;-75
2021/11/11 03:41:31;;;;;;;24.88;15.65;;;9.60;99.90;;;;;;5031169;28;20029;-75
2021/11/11 03:43:57;;;;;;;31.90;16.45;;;9.60;99.90;;;;;;5031724;28;20029;-75
2021/11/11 03:46:23;;;;;;;33.08;17.17;;;9.60;99.90;;;;;;5030783;28;20033;-75
2021/11/11 03:48:49;;;;;;;33.90;18.05;;;9.60;99.90;;;;;;5031783;28;20029;-75
2021/11/11 03:51:14;;;;;;;33.30;16.83;;;9.50;99.90;;;;;;5032109;28;20087;-75
2021/11/11 03:53:41;;;;;;;29.30;15.68;;;9.60;99.90;;;;;;5030696;28;20022;-75
2021/11/11 03:56:06;;;;;;;34.08;17.60;;;9.60;99.90;;;;;;5031582;28;20040;-75
2021/11/11 03:58:32;;;;;;;32.70;17.13;;;9.60;99.90;;;;;;5031359;28;20025;-76
2021/11/11 04:00:58;;;;;;;34.53;17.40;;;9.60;99.90;;;;;;5031174;28;20059;-74
2021/11/11 04:03:23;;;;;;;37.20;17.92;;;9.60;99.90;;;;;;5031608;28;20025;-75
2021/11/11 04:05:49;;;;;;;41.15;17.17;;;9.60;99.90;;;;;;5031464;28;20025;-75
2021/11/11 04:08:15;;;;;;;35.13;17.80;;;9.60;99.90;;;;;;5030861;28;20152;-74
2021/11/11 04:10:40;;;;;;;31.40;16.95;;;9.60;99.90;;;;;;5031069;28;20026;-74
2021/11/11 04:13:06;;;;;;;41.10;18.13;;;9.60;99.90;;;;;;5031175;28;20040;-74
2021/11/11 04:15:33;;;;;;;36.25;18.95;;;9.60;99.90;;;;;;5030674;28;20083;-76
2021/11/11 04:17:59;;;;;;;31.45;18.23;;;9.60;99.90;;;;;;5031353;28;20489;-73
2021/11/11 04:20:26;;;;;;;36.85;18.42;;;9.60;99.90;;;;;;5031003;28;20021;-73
2021/11/11 04:22:52;;;;;;;30.35;16.38;;;9.60;99.90;;;;;;5030627;28;20112;-75
2021/11/11 04:28:21;;;;;;;36.25;16.15;;;9.60;99.90;;;;;;4998002;28;20047;-74
2021/11/11 04:30:49;;;;;;;40.30;17.52;;;9.60;99.90;;;;;;5032916;28;20374;-75
2021/11/11 04:33:15;;;;;;;38.95;18.63;;;9.60;99.90;;;;;;5031808;28;20030;-75
2021/11/11 04:35:45;;;;;;;42.20;18.67;;;9.70;99.90;;;;;;5031306;28;20105;-74
2021/11/11 04:38:27;;;;;;;31.23;17.27;;;9.60;99.90;;;;;;5031366;28;20088;-75
2021/11/11 04:43:49;;;;;;;33.72;17.45;;;9.60;99.90;;;;;;5031066;28;20359;-73
2021/11/11 05:04:59;;;;;;;41.45;19.60;;;9.60;99.90;;;;;;5017458;28;20021;-75
2021/11/11 05:07:25;;;;;;;37.35;19.63;;;9.60;99.90;;;;;;5030777;28;20044;-75
2021/11/11 05:09:50;;;;;;;36.42;19.08;;;9.50;99.90;;;;;;5030756;28;20466;-76
2021/11/11 05:12:17;;;;;;;45.15;18.95;;;9.60;99.90;;;;;;5030516;28;20108;-74
2021/11/11 05:14:42;;;;;;;41.72;19.30;;;9.60;99.90;;;;;;5030767;28;20040;-76
2021/11/11 05:17:08;;;;;;;37.63;19.10;;;9.60;99.90;;;;;;5030701;28;20029;-76
2021/11/11 05:19:33;;;;;;;39.45;18.80;;;9.60;99.90;;;;;;5030324;28;20085;-75
2021/11/11 05:21:59;;;;;;;47.80;19.30;;;9.60;99.90;;;;;;5030523;28;20059;-75
2021/11/11 05:24:25;;;;;;;36.97;19.30;;;9.60;99.90;;;;;;5031654;28;20032;-75
2021/11/11 05:26:51;;;;;;;48.53;21.38;;;9.60;99.90;;;;;;5030275;28;20034;-75
2021/11/11 05:29:16;;;;;;;42.90;18.40;;;9.60;99.90;;;;;;5030914;28;20013;-75
2021/11/11 05:31:43;;;;;;;34.08;18.13;;;9.60;99.90;;;;;;5029940;28;20036;-75
2021/11/11 05:34:08;;;;;;;38.85;18.75;;;9.60;99.90;;;;;;5033407;28;20052;-75
2021/11/11 05:36:34;;;;;;;36.13;18.67;;;9.60;99.90;;;;;;5035085;28;20474;-75
2021/11/11 05:39:00;;;;;;;39.83;19.25;;;9.60;99.90;;;;;;5033795;28;20041;-76
2021/11/11 05:41:25;;;;;;;36.08;18.52;;;9.60;99.90;;;;;;5034059;28;20111;-76
2021/11/11 05:43:51;;;;;;;28.88;17.05;;;9.60;99.90;;;;;;5033984;28;20469;-74
2021/11/11 05:46:16;;;;;;;33.42;18.98;;;9.50;99.90;;;;;;5033693;28;20390;-75
2021/11/11 05:48:42;;;;;;;39.00;19.30;;;9.50;99.90;;;;;;5034618;28;20022;-75
2021/11/11 05:51:07;;;;;;;40.42;19.13;;;9.50;99.90;;;;;;5034155;28;20096;-75
2021/11/11 05:53:33;;;;;;;40.95;20.13;;;9.50;99.90;;;;;;5033006;28;20056;-75
2021/11/11 05:55:59;;;;;;;40.78;19.92;;;9.50;99.90;;;;;;5034008;28;20385;-75
2021/11/11 05:58:24;;;;;;;37.10;18.50;;;9.50;99.90;;;;;;5033654;28;20111;-76
2021/11/11 06:00:50;;;;;;;36.53;18.98;;;9.50;99.90;;;;;;5032965;28;20538;-75
2021/11/11 06:03:16;;;;;;;41.45;18.63;;;9.50;99.90;;;;;;5033595;28;20430;-74
2021/11/11 06:05:42;;;;;;;42.15;20.23;;;9.50;99.90;;;;;;5033033;28;20377;-76
2021/11/11 06:08:09;;;;;;;31.73;17.98;;;9.50;99.90;;;;;;5033306;28;20034;-76
2021/11/11 06:10:34;;;;;;;43.75;20.42;;;9.50;99.90;;;;;;5033604;28;20034;-75
2021/11/11 06:13:00;;;;;;;38.72;18.55;;;9.50;99.90;;;;;;5033530;28;20366;-75
2021/11/11 06:15:26;;;;;;;37.80;18.52;;;9.50;99.90;;;;;;5033239;28;20018;-76
2021/11/11 06:17:57;;;;;;;36.08;18.90;;;9.50;99.90;;;;;;5033713;28;20055;-76
2021/11/11 06:20:32;;;;;;;47.42;21.88;;;9.50;99.90;;;;;;5032939;28;20445;-75
2021/11/11 06:22:58;;;;;;;41.28;20.98;;;9.50;99.90;;;;;;5031676;28;20029;-77
2021/11/11 06:25:25;;;;;;;34.05;18.60;;;9.50;99.90;;;;;;5029490;28;20029;-76
2021/11/11 06:27:50;;;;;;;33.38;17.30;;;9.40;99.90;;;;;;5031863;28;20046;-77
2021/11/11 06:30:17;;;;;;;35.72;17.90;;;9.40;99.90;;;;;;5029230;28;20029;-77
2021/11/11 06:32:42;;;;;;;35.88;18.30;;;9.40;99.90;;;;;;5032275;28;20025;-78
2021/11/11 06:35:09;;;;;;;38.47;18.80;;;9.40;99.90;;;;;;5031872;28;20029;-77
2021/11/11 06:37:37;;;;;;;34.55;18.38;;;9.40;99.90;;;;;;5032093;28;20025;-77
2021/11/11 06:40:05;;;;;;;37.58;19.38;;;9.40;99.90;;;;;;5031591;28;20075;-79
2021/11/11 06:42:31;;;;;;;37.45;20.13;;;9.50;99.90;;;;;;5030152;28;20025;-78
2021/11/11 06:44:57;;;;;;;37.33;18.90;;;9.40;99.90;;;;;;5029879;28;20044;-76
2021/11/11 06:47:23;;;;;;;37.25;18.80;;;9.40;99.90;;;;;;5030905;28;20053;-77
2021/11/11 06:49:49;;;;;;;36.42;18.65;;;9.40;99.90;;;;;;5031699;28;20030;-77
2021/11/11 06:52:14;;;;;;;36.88;17.67;;;9.50;99.90;;;;;;5032734;28;20025;-76
2021/11/11 06:54:41;;;;;;;36.08;19.05;;;9.40;99.90;;;;;;5032677;28;20018;-78
2021/11/11 06:57:07;;;;;;;38.33;17.92;;;9.40;99.90;;;;;;5032869;28;20030;-77
2021/11/11 06:59:36;;;;;;;35.53;19.27;;;9.50;99.90;;;;;;5033319;28;20149;-77
2021/11/11 07:02:02;;;;;;;36.25;19.73;;;9.40;99.90;;;;;;5032829;28;20021;-76
2021/11/11 07:04:28;;;;;;;36.63;19.58;;;9.50;99.90;;;;;;5032418;28;20101;-78
2021/11/11 07:06:54;;;;;;;38.47;19.52;;;9.50;99.90;;;;;;5032933;28;20612;-79
2021/11/11 07:09:20;;;;;;;44.72;20.05;;;9.50;99.90;;;;;;5026559;28;20028;-78
2021/11/11 07:11:45;;;;;;;39.63;19.75;;;9.50;99.90;;;;;;5032889;28;20112;-77
2021/11/11 07:14:11;;;;;;;41.47;19.67;;;9.50;99.90;;;;;;5033228;28;20030;-77
2021/11/11 07:16:36;;;;;;;40.35;19.77;;;9.50;99.90;;;;;;5033259;28;20032;-78
2021/11/11 07:19:02;;;;;;;39.78;20.45;;;9.50;99.90;;;;;;5037945;28;20513;-76
2021/11/11 07:21:28;;;;;;;37.63;19.70;;;9.50;99.90;;;;;;5031761;28;20056;-78
2021/11/11 07:23:54;;;;;;;37.83;19.35;;;9.60;99.90;;;;;;5031794;28;20076;-79
2021/11/11 07:26:19;;;;;;;40.63;20.27;;;9.60;99.90;;;;;;5032110;28;20057;-76
2021/11/11 07:28:45;;;;;;;37.33;19.55;;;9.70;99.90;;;;;;5032895;28;20032;-82
2021/11/11 07:31:10;;;;;;;39.40;19.63;;;9.70;99.90;;;;;;5033361;28;20438;-78
2021/11/11 07:33:36;;;;;;;44.20;20.13;;;9.70;99.90;;;;;;5032603;28;20405;-79
2021/11/11 07:36:03;;;;;;;38.20;20.25;;;9.70;99.90;;;;;;5033169;28;20014;-80
2021/11/11 07:38:31;;;;;;;39.22;20.15;;;9.80;99.90;;;;;;5032822;28;20045;-79
2021/11/11 07:40:56;;;;;;;41.25;20.10;;;9.80;99.90;;;;;;5033285;28;20101;-78
2021/11/11 07:43:22;;;;;;;36.83;20.02;;;9.90;99.90;;;;;;5036289;28;20056;-80
2021/11/11 07:45:48;;;;;;;37.67;19.45;;;9.90;99.90;;;;;;5034979;28;20040;-74
2021/11/11 07:48:14;;;;;;;33.17;18.98;;;9.90;99.90;;;;;;5034458;28;20040;-80
2021/11/11 07:50:42;;;;;;;34.80;19.55;;;9.90;99.90;;;;;;5031859;28;20488;-80
2021/11/11 07:53:09;;;;;;;43.90;19.67;;;10.00;99.90;;;;;;5037602;28;20428;-80
2021/11/11 07:55:38;;;;;;;36.88;19.63;;;10.00;99.90;;;;;;5033059;28;20505;-79
2021/11/11 07:58:04;;;;;;;37.90;20.23;;;9.90;99.90;;;;;;5029873;28;20036;-76
2021/11/11 08:00:29;;;;;;;38.08;19.83;;;10.00;99.90;;;;;;5030899;28;20452;-78
2021/11/11 08:02:55;;;;;;;43.83;19.77;;;10.00;99.90;;;;;;5031791;28;20028;-77
2021/11/11 08:05:21;;;;;;;37.67;19.55;;;10.00;99.90;;;;;;5030111;28;20034;-77
2021/11/11 08:07:48;;;;;;;37.60;18.15;;;10.00;99.90;;;;;;5030358;28;20029;-76
2021/11/11 08:10:16;;;;;;;39.25;21.05;;;10.10;99.90;;;;;;5030827;28;20053;-78
2021/11/11 08:12:42;;;;;;;45.08;21.05;;;10.10;99.90;;;;;;5031156;28;20057;-76
2021/11/11 08:15:08;;;;;;;39.65;20.90;;;10.20;99.90;;;;;;5031828;28;20056;-77
2021/11/11 08:17:37;;;;;;;35.53;19.67;;;10.20;99.90;;;;;;5032968;28;20021;-79
2021/11/11 08:20:05;;;;;;;39.55;20.27;;;10.30;99.90;;;;;;5030464;28;20022;-78
2021/11/11 08:22:31;;;;;;;37.45;20.58;;;10.30;99.90;;;;;;5030300;28;20025;-78
2021/11/11 08:24:57;;;;;;;35.83;19.92;;;11.20;99.90;;;;;;5031872;28;20025;-78
2021/11/11 08:27:24;;;;;;;36.45;19.20;;;10.40;99.90;;;;;;5030103;28;20091;-79
2021/11/11 08:29:50;;;;;;;43.03;22.67;;;10.40;99.90;;;;;;5029755;28;20120;-78
2021/11/11 08:32:16;;;;;;;42.55;21.08;;;10.50;99.90;;;;;;5029874;28;20021;-78
2021/11/11 08:34:44;;;;;;;42.35;21.75;;;10.60;99.90;;;;;;5029462;28;20017;-78
2021/11/11 08:37:10;;;;;;;40.15;21.40;;;10.60;99.90;;;;;;5030104;28;20449;-78
2021/11/11 08:39:37;;;;;;;37.55;22.02;;;10.70;99.90;;;;;;5029809;28;20419;-76
2021/11/11 08:42:04;;;;;;;48.88;23.83;;;10.70;99.90;;;;;;5029919;28;20037;-77
2021/11/11 08:44:30;;;;;;;37.03;20.15;;;10.80;99.90;;;;;;5029819;28;20025;-79
2021/11/11 08:46:56;;;;;;;35.83;19.67;;;10.70;99.90;;;;;;5030538;28;20508;-77
2021/11/11 08:49:22;;;;;;;36.72;19.05;;;10.80;99.90;;;;;;5029033;28;20044;-77
2021/11/11 08:51:50;;;;;;;41.05;20.42;;;10.70;99.90;;;;;;5036261;28;20037;-75
2021/11/11 08:54:18;;;;;;;33.42;19.42;;;10.70;99.90;;;;;;5028514;28;20493;-79
2021/11/11 08:56:50;;;;;;;39.63;18.30;;;10.80;99.90;;;;;;5030223;28;20517;-74
2021/11/11 08:59:18;;;;;;;40.22;22.77;;;10.80;99.90;;;;;;5029879;28;20037;-81
2021/11/11 09:01:43;;;;;;;41.33;21.25;;;10.80;99.90;;;;;;5029598;28;20018;-79
2021/11/11 09:04:09;;;;;;;40.70;22.52;;;10.80;99.90;;;;;;5028504;28;20041;-73
2021/11/11 09:06:35;;;;;;;35.90;20.27;;;10.80;99.90;;;;;;5030197;28;20040;-75
2021/11/11 09:09:04;;;;;;;44.03;21.73;;;11.00;99.90;;;;;;5033372;28;20108;-77
2021/11/11 09:11:29;;;;;;;42.92;22.65;;;10.80;99.90;;;;;;5034540;28;20827;-78
2021/11/11 09:13:55;;;;;;;44.67;23.35;;;10.80;99.90;;;;;;5034138;28;20025;-77
2021/11/11 09:16:23;;;;;;;47.60;23.33;;;10.90;99.90;;;;;;5033195;28;20018;-77
2021/11/11 09:18:48;;;;;;;45.13;23.77;;;10.90;99.90;;;;;;5031852;28;20112;-78
2021/11/11 09:21:14;;;;;;;38.20;22.15;;;10.90;99.90;;;;;;5034331;28;20100;-77
2021/11/11 09:23:41;;;;;;;43.97;23.15;;;11.00;99.90;;;;;;5034209;28;20083;-77
2021/11/11 09:26:08;;;;;;;45.60;23.85;;;11.00;99.90;;;;;;5032733;28;20461;-77
2021/11/11 09:28:36;;;;;;;38.92;22.95;;;11.00;99.90;;;;;;5033905;28;20026;-78
2021/11/11 09:31:02;;;;;;;43.47;23.02;;;11.10;99.90;;;;;;5034112;28;20113;-78
2021/11/11 09:33:30;;;;;;;45.35;23.42;;;11.10;99.90;;;;;;5033579;28;20101;-77
2021/11/11 09:35:57;;;;;;;44.22;23.40;;;11.20;99.90;;;;;;5033276;28;20440;-77
2021/11/11 09:38:24;;;;;;;45.22;23.33;;;11.20;99.90;;;;;;5033102;28;20096;-75
2021/11/11 09:40:51;;;;;;;49.78;23.58;;;11.30;99.90;;;;;;5034543;28;20087;-79
2021/11/11 09:43:16;;;;;;;42.75;24.35;;;11.30;99.90;;;;;;5034659;28;20021;-80
2021/11/11 09:45:45;;;;;;;41.13;23.52;;;11.30;99.90;;;;;;5031554;28;20108;-78
2021/11/11 09:48:14;;;;;;;44.10;23.70;;;11.40;99.90;;;;;;5032601;28;20033;-78
2021/11/11 09:50:40;;;;;;;53.00;25.17;;;11.30;99.90;;;;;;5037743;28;20034;-78
2021/11/11 09:53:11;;;;;;;46.80;24.45;;;11.40;99.90;;;;;;5036286;28;20563;-78
2021/11/11 09:58:35;;;;;;;44.75;23.67;;;11.40;99.90;;;;;;5036941;28;20072;-79
2021/11/11 10:01:07;;;;;;;42.50;23.30;;;11.50;99.90;;;;;;5035428;28;20021;-78
2021/11/11 10:03:36;;;;;;;42.03;23.70;;;11.40;99.90;;;;;;5036671;28;20021;-79
2021/11/11 10:06:02;;;;;;;44.13;24.42;;;11.50;99.90;;;;;;5041781;28;20029;-79
2021/11/11 10:08:40;;;;;;;46.58;24.25;;;11.50;99.90;;;;;;5039110;28;20033;-79
2021/11/11 10:11:11;;;;;;;44.95;24.05;;;11.50;99.90;;;;;;5035216;28;20026;-77
2021/11/11 10:13:37;;;;;;;47.90;26.13;;;11.60;99.90;;;;;;5033912;28;20033;-75
2021/11/11 10:16:05;;;;;;;42.53;23.65;;;11.60;99.90;;;;;;5036048;28;20516;-77
2021/11/11 10:18:38;;;;;;;35.17;21.92;;;11.70;99.90;;;;;;5035322;28;20061;-74
2021/11/11 10:21:25;;;;;;;44.72;24.88;;;11.60;99.90;;;;;;5036019;28;20030;-76
2021/11/11 10:23:52;;;;;;;43.13;24.05;;;11.70;99.90;;;;;;5020476;28;20030;-75
2021/11/11 10:26:38;;;;;;;40.95;23.20;;;11.70;99.90;;;;;;5037028;28;20021;-75
2021/11/11 10:29:30;;;;;;;41.80;25.48;;;11.70;99.90;;;;;;5035476;28;20030;-74
2021/11/11 10:32:04;;;;;;;39.65;23.17;;;11.70;99.90;;;;;;5034458;28;20028;-75
2021/11/11 10:34:29;;;;;;;43.85;23.35;;;11.80;99.90;;;;;;5033555;28;20381;-74
2021/11/11 10:36:56;;;;;;;42.28;22.92;;;11.80;99.90;;;;;;5034377;28;20038;-76
2021/11/11 10:39:25;;;;;;;38.35;23.25;;;11.80;99.90;;;;;;5033086;28;20041;-75
2021/11/11 10:41:55;;;;;;;44.67;24.08;;;11.80;99.90;;;;;;5034368;28;20433;-76
2021/11/11 10:44:25;;;;;;;40.95;23.85;;;11.80;99.90;;;;;;5034165;28;20541;-74
2021/11/11 10:47:03;;;;;;;50.70;22.92;;;11.70;99.90;;;;;;5035286;28;20041;-72
2021/11/11 10:49:42;;;;;;;37.60;22.80;;;11.70;99.90;;;;;;5031162;28;20049;-75
2021/11/11 10:52:30;;;;;;;39.03;23.97;;;11.70;99.90;;;;;;5022105;28;20040;-74
2021/11/11 10:55:16;;;;;;;38.20;24.00;;;11.70;99.90;;;;;;5026914;28;20632;-74
2021/11/11 10:58:02;;;;;;;43.15;22.92;;;11.70;99.90;;;;;;5021188;28;20037;-74
2021/11/11 11:00:30;;;;;;;45.45;23.55;;;11.70;99.90;;;;;;5025674;28;20433;-74
2021/11/11 11:03:02;;;;;;;42.58;24.85;;;11.70;99.90;;;;;;5020983;28;20022;-74
2021/11/11 11:05:42;;;;;;;42.50;24.25;;;11.70;99.90;;;;;;5022658;28;20155;-74
2021/11/11 11:08:11;;;;;;;39.72;25.15;;;11.70;99.90;;;;;;5024899;28;20040;-75
2021/11/11 11:10:40;;;;;;;39.55;24.52;;;11.70;99.90;;;;;;5024308;28;20087;-75
2021/11/11 11:13:20;;;;;;;51.28;27.63;;;11.70;99.90;;;;;;5030693;28;20425;-74
2021/11/11 11:15:55;;;;;;;42.28;26.15;;;11.70;99.90;;;;;;5018843;28;20053;-75
2021/11/11 11:18:29;;;;;;;39.03;26.10;;;11.70;99.90;;;;;;5022400;28;20029;-75
2021/11/11 11:20:57;;;;;;;38.75;24.63;;;11.80;99.90;;;;;;5024081;28;20025;-75
2021/11/11 11:23:50;;;;;;;44.50;25.85;;;11.70;99.90;;;;;;5019302;28;20034;-76
2021/11/11 11:26:24;;;;;;;42.95;26.88;;;11.70;99.90;;;;;;5022808;28;20087;-74
2021/11/11 11:29:01;;;;;;;38.28;25.17;;;11.60;99.90;;;;;;5025253;28;20021;-74
2021/11/11 11:31:32;;;;;;;40.15;24.80;;;11.70;99.90;;;;;;5021655;28;20073;-74
2021/11/11 11:34:04;;;;;;;44.08;26.23;;;11.60;99.90;;;;;;5025403;28;20027;-74
2021/11/11 11:36:34;;;;;;;41.10;25.73;;;11.70;99.90;;;;;;5021747;28;20084;-74
2021/11/11 11:38:59;;;;;;;43.05;26.55;;;11.70;99.90;;;;;;5024538;28;20045;-75
2021/11/11 11:41:30;;;;;;;44.17;27.02;;;11.70;99.90;;;;;;5027563;28;20064;-74
2021/11/11 11:44:13;;;;;;;49.65;27.98;;;11.70;99.90;;;;;;5025035;28;20091;-74
2021/11/11 11:46:39;;;;;;;53.00;28.90;;;11.70;99.90;;;;;;5022938;28;20033;-75
2021/11/11 11:49:05;;;;;;;45.30;27.50;;;11.70;99.90;;;;;;5023719;28;20370;-74
2021/11/11 11:51:31;;;;;;;46.22;26.55;;;11.70;99.90;;;;;;5025923;28;20075;-76
2021/11/11 11:54:11;;;;;;;47.10;27.17;;;11.70;99.90;;;;;;5024260;28;20026;-76
2021/11/11 11:56:48;;;;;;;47.28;27.25;;;11.70;99.90;;;;;;5022631;28;20104;-74
2021/11/11 11:59:17;;;;;;;47.33;27.10;;;11.70;99.90;;;;;;5023447;28;20033;-75
2021/11/11 12:04:19;;;;;;;41.63;24.73;;;11.80;99.90;;;;;;5020225;28;20385;-77
2021/11/11 12:07:00;;;;;;;44.17;24.38;;;11.80;99.90;;;;;;5028729;28;20037;-75
2021/11/11 12:13:18;;;;;;;38.25;23.30;;;11.80;99.90;;;;;;5018070;28;20044;-75
2021/11/11 12:15:29;;;;;;;35.50;22.75;;;11.80;99.90;;;;;;5015046;28;20052;-77
2021/11/11 12:40:13;;;;;;;36.13;20.08;;;12.10;99.90;;;;;;5030052;28;20060;-76
2021/11/11 12:42:41;;;;;;;27.13;18.45;;;12.00;99.90;;;;;;5027935;28;20025;-77
2021/11/11 12:45:21;;;;;;;29.73;19.70;;;12.10;99.90;;;;;;5035051;28;20584;-77
2021/11/11 12:48:11;;;;;;;28.30;19.08;;;12.10;99.90;;;;;;5034581;28;20037;-76
2021/11/11 12:50:43;;;;;;;29.50;19.05;;;12.10;99.90;;;;;;5024656;28;20497;-76
2021/11/11 12:53:16;;;;;;;31.55;19.25;;;12.10;99.90;;;;;;5035933;28;20037;-76
2021/11/11 12:56:06;;;;;;;28.40;18.77;;;12.10;99.90;;;;;;5034954;28;20029;-78
2021/11/11 12:58:39;;;;;;;33.58;19.30;;;12.00;99.90;;;;;;5035183;28;20033;-76
2021/11/11 13:01:12;;;;;;;32.70;19.42;;;12.10;99.90;;;;;;5035499;28;20080;-76
2021/11/11 13:03:54;;;;;;;41.70;20.33;;;12.20;99.90;;;;;;5033002;28;20068;-76
2021/11/11 13:06:39;;;;;;;40.72;21.90;;;12.10;99.90;;;;;;5035135;28;20025;-73
2021/11/11 13:09:10;;;;;;;40.35;21.25;;;12.10;99.90;;;;;;5035440;28;20030;-77
2021/11/11 13:11:39;;;;;;;39.97;21.27;;;12.20;99.90;;;;;;5034249;28;20105;-76
2021/11/11 13:14:13;;;;;;;48.67;22.27;;;12.10;99.90;;;;;;5034907;28;20026;-76
2021/11/11 13:16:38;;;;;;;42.55;21.83;;;12.10;99.90;;;;;;5034530;28;20537;-76
2021/11/11 13:19:04;;;;;;;42.72;22.08;;;12.10;99.90;;;;;;5035469;28;20064;-76
2021/11/11 13:21:45;;;;;;;47.47;23.40;;;12.10;99.90;;;;;;5035009;28;20420;-77
2021/11/11 13:24:47;;;;;;;46.03;21.60;;;12.00;99.90;;;;;;5035131;28;20396;-76
2021/11/11 15:20:09;;;;;;;59.88;28.00;;;11.80;99.90;;;;;;5026488;28;20025;-76
2021/11/11 15:57:32;;;;;;;53.50;24.58;;;11.60;99.90;;;;;;5019567;28;20035;-74
2021/11/11 16:24:47;;;;;;;79.43;35.17;;;11.50;99.90;;;;;;5025567;28;20393;-76
2021/11/11 16:27:15;;;;;;;62.58;30.13;;;11.50;99.90;;;;;;5027365;28;20029;-74